sensor_id;sensor_type;location;lat;lon;timestamp;P1;durP1;ratioP1;P2;durP2;ratioP2
24521;SDS011;12680;57.804;12.190;2023-03-01T00:00:07;0.95;;;0.88;;
24521;SDS011;12680;57.804;12.190;2023-03-01T00:02:34;0.60;;;0.60;;
24521;SDS011;12680;57.804;12.190;2023-03-01T00:05:01;1.40;;;0.80;;
24521;SDS011;12680;57.804;12.190;2023-03-01T00:07:28;1.60;;;0.80;;
24521;SDS011;12680;57.804;12.190;2023-03-01T00:09:55;0.90;;;0.90;;
24521;SDS011;12680;57.804;12.190;2023-03-01T00:12:22;2.50;;;1.00;;
24521;SDS011;12680;57.804;12.190;2023-03-01T00:14:49;1.30;;;1.00;;
24521;SDS011;12680;57.804;12.190;2023-03-01T00:17:15;3.03;;;0.70;;
24521;SDS011;12680;57.804;12.190;2023-03-01T00:19:43;1.27;;;0.80;;
24521;SDS011;12680;57.804;12.190;2023-03-01T00:22:09;0.88;;;0.80;;
24521;SDS011;12680;57.804;12.190;2023-03-01T00:24:36;0.98;;;0.88;;
24521;SDS011;12680;57.804;12.190;2023-03-01T00:27:03;1.48;;;0.88;;
24521;SDS011;12680;57.804;12.190;2023-03-01T00:29:29;1.10;;;0.95;;
24521;SDS011;12680;57.804;12.190;2023-03-01T00:31:56;2.40;;;0.73;;
24521;SDS011;12680;57.804;12.190;2023-03-01T00:34:23;0.88;;;0.75;;
24521;SDS011;12680;57.804;12.190;2023-03-01T00:36:49;1.33;;;0.90;;
24521;SDS011;12680;57.804;12.190;2023-03-01T00:39:16;3.60;;;0.80;;
24521;SDS011;12680;57.804;12.190;2023-03-01T00:41:43;1.92;;;0.80;;
24521;SDS011;12680;57.804;12.190;2023-03-01T00:44:10;0.65;;;0.50;;
24521;SDS011;12680;57.804;12.190;2023-03-01T00:46:37;1.25;;;0.90;;
24521;SDS011;12680;57.804;12.190;2023-03-01T00:49:04;0.93;;;0.80;;
24521;SDS011;12680;57.804;12.190;2023-03-01T00:51:31;2.33;;;1.13;;
24521;SDS011;12680;57.804;12.190;2023-03-01T00:53:59;0.95;;;0.80;;
24521;SDS011;12680;57.804;12.190;2023-03-01T00:56:27;1.13;;;0.80;;
24521;SDS011;12680;57.804;12.190;2023-03-01T00:58:55;1.58;;;0.80;;
24521;SDS011;12680;57.804;12.190;2023-03-01T01:01:23;3.65;;;0.90;;
24521;SDS011;12680;57.804;12.190;2023-03-01T01:04:00;3.30;;;1.00;;
24521;SDS011;12680;57.804;12.190;2023-03-01T01:06:36;0.90;;;0.70;;
24521;SDS011;12680;57.804;12.190;2023-03-01T01:09:06;3.42;;;0.73;;
24521;SDS011;12680;57.804;12.190;2023-03-01T01:11:33;2.47;;;1.08;;
24521;SDS011;12680;57.804;12.190;2023-03-01T01:14:01;0.85;;;0.70;;
24521;SDS011;12680;57.804;12.190;2023-03-01T01:16:29;1.75;;;1.08;;
24521;SDS011;12680;57.804;12.190;2023-03-01T01:18:56;0.98;;;0.88;;
24521;SDS011;12680;57.804;12.190;2023-03-01T01:21:23;2.08;;;0.98;;
24521;SDS011;12680;57.804;12.190;2023-03-01T01:23:51;1.88;;;1.05;;
24521;SDS011;12680;57.804;12.190;2023-03-01T01:26:38;5.88;;;0.90;;
24521;SDS011;12680;57.804;12.190;2023-03-01T01:29:05;1.98;;;0.90;;
24521;SDS011;12680;57.804;12.190;2023-03-01T01:31:32;0.82;;;0.70;;
24521;SDS011;12680;57.804;12.190;2023-03-01T01:34:01;3.60;;;0.98;;
24521;SDS011;12680;57.804;12.190;2023-03-01T01:36:29;1.33;;;0.85;;
24521;SDS011;12680;57.804;12.190;2023-03-01T01:38:57;2.67;;;1.20;;
24521;SDS011;12680;57.804;12.190;2023-03-01T01:41:25;0.80;;;0.80;;
24521;SDS011;12680;57.804;12.190;2023-03-01T01:46:40;0.82;;;0.80;;
24521;SDS011;12680;57.804;12.190;2023-03-01T01:51:41;1.30;;;0.70;;
24521;SDS011;12680;57.804;12.190;2023-03-01T01:54:21;1.25;;;0.80;;
24521;SDS011;12680;57.804;12.190;2023-03-01T01:56:53;1.73;;;0.93;;
24521;SDS011;12680;57.804;12.190;2023-03-01T01:59:23;1.42;;;0.80;;
24521;SDS011;12680;57.804;12.190;2023-03-01T02:01:51;1.23;;;0.73;;
24521;SDS011;12680;57.804;12.190;2023-03-01T02:04:19;1.58;;;0.90;;
24521;SDS011;12680;57.804;12.190;2023-03-01T02:06:48;1.10;;;0.90;;
24521;SDS011;12680;57.804;12.190;2023-03-01T02:09:21;5.00;;;0.75;;
24521;SDS011;12680;57.804;12.190;2023-03-01T02:11:50;1.40;;;0.98;;
24521;SDS011;12680;57.804;12.190;2023-03-01T02:14:18;0.90;;;0.90;;
24521;SDS011;12680;57.804;12.190;2023-03-01T02:16:44;1.25;;;0.90;;
24521;SDS011;12680;57.804;12.190;2023-03-01T02:19:15;0.80;;;0.80;;
24521;SDS011;12680;57.804;12.190;2023-03-01T02:22:03;1.23;;;0.90;;
24521;SDS011;12680;57.804;12.190;2023-03-01T02:28:31;0.93;;;0.80;;
24521;SDS011;12680;57.804;12.190;2023-03-01T02:30:46;0.93;;;0.80;;
24521;SDS011;12680;57.804;12.190;2023-03-01T02:33:34;1.75;;;1.00;;
24521;SDS011;12680;57.804;12.190;2023-03-01T02:36:04;1.45;;;0.85;;
24521;SDS011;12680;57.804;12.190;2023-03-01T02:38:54;1.35;;;0.75;;
24521;SDS011;12680;57.804;12.190;2023-03-01T02:41:23;1.10;;;0.77;;
24521;SDS011;12680;57.804;12.190;2023-03-01T02:43:52;1.30;;;0.82;;
24521;SDS011;12680;57.804;12.190;2023-03-01T02:46:23;1.52;;;1.02;;
24521;SDS011;12680;57.804;12.190;2023-03-01T02:48:52;1.83;;;0.90;;
24521;SDS011;12680;57.804;12.190;2023-03-01T02:51:26;0.90;;;0.80;;
24521;SDS011;12680;57.804;12.190;2023-03-01T02:56:55;1.73;;;1.23;;
24521;SDS011;12680;57.804;12.190;2023-03-01T02:59:24;1.05;;;0.88;;
24521;SDS011;12680;57.804;12.190;2023-03-01T03:01:55;0.70;;;0.60;;
24521;SDS011;12680;57.804;12.190;2023-03-01T03:04:22;2.15;;;0.88;;
24521;SDS011;12680;57.804;12.190;2023-03-01T03:06:49;1.27;;;0.80;;
24521;SDS011;12680;57.804;12.190;2023-03-01T03:09:17;2.15;;;0.90;;
24521;SDS011;12680;57.804;12.190;2023-03-01T03:11:45;1.27;;;0.90;;
24521;SDS011;12680;57.804;12.190;2023-03-01T03:14:13;1.10;;;0.70;;
24521;SDS011;12680;57.804;12.190;2023-03-01T03:16:42;1.52;;;0.85;;
24521;SDS011;12680;57.804;12.190;2023-03-01T03:19:12;1.73;;;1.10;;
24521;SDS011;12680;57.804;12.190;2023-03-01T03:21:39;1.50;;;0.93;;
24521;SDS011;12680;57.804;12.190;2023-03-01T03:24:06;0.60;;;0.60;;
24521;SDS011;12680;57.804;12.190;2023-03-01T03:26:33;1.35;;;0.90;;
24521;SDS011;12680;57.804;12.190;2023-03-01T03:28:59;1.02;;;0.90;;
24521;SDS011;12680;57.804;12.190;2023-03-01T03:31:26;2.80;;;1.08;;
24521;SDS011;12680;57.804;12.190;2023-03-01T03:33:54;1.85;;;0.65;;
24521;SDS011;12680;57.804;12.190;2023-03-01T03:36:22;1.00;;;0.90;;
24521;SDS011;12680;57.804;12.190;2023-03-01T03:38:50;1.30;;;1.00;;
24521;SDS011;12680;57.804;12.190;2023-03-01T03:41:17;1.17;;;0.82;;
24521;SDS011;12680;57.804;12.190;2023-03-01T03:43:44;1.05;;;0.95;;
24521;SDS011;12680;57.804;12.190;2023-03-01T03:46:10;1.30;;;1.00;;
24521;SDS011;12680;57.804;12.190;2023-03-01T03:48:38;1.15;;;1.00;;
24521;SDS011;12680;57.804;12.190;2023-03-01T03:51:06;1.40;;;0.90;;
24521;SDS011;12680;57.804;12.190;2023-03-01T03:53:37;1.40;;;1.02;;
24521;SDS011;12680;57.804;12.190;2023-03-01T03:56:04;0.90;;;0.80;;
24521;SDS011;12680;57.804;12.190;2023-03-01T03:58:31;2.13;;;1.10;;
24521;SDS011;12680;57.804;12.190;2023-03-01T04:00:58;1.77;;;1.10;;
24521;SDS011;12680;57.804;12.190;2023-03-01T04:03:27;1.75;;;1.10;;
24521;SDS011;12680;57.804;12.190;2023-03-01T04:05:56;1.38;;;0.98;;
24521;SDS011;12680;57.804;12.190;2023-03-01T04:08:24;1.27;;;0.93;;
24521;SDS011;12680;57.804;12.190;2023-03-01T04:10:56;1.27;;;1.00;;
24521;SDS011;12680;57.804;12.190;2023-03-01T04:13:25;1.30;;;1.10;;
24521;SDS011;12680;57.804;12.190;2023-03-01T04:15:52;2.75;;;1.10;;
24521;SDS011;12680;57.804;12.190;2023-03-01T04:18:21;1.20;;;1.10;;
24521;SDS011;12680;57.804;12.190;2023-03-01T04:20:49;3.88;;;1.20;;
24521;SDS011;12680;57.804;12.190;2023-03-01T04:23:19;1.05;;;0.88;;
24521;SDS011;12680;57.804;12.190;2023-03-01T04:25:53;1.35;;;1.17;;
24521;SDS011;12680;57.804;12.190;2023-03-01T04:28:23;1.85;;;1.10;;
24521;SDS011;12680;57.804;12.190;2023-03-01T04:30:52;1.98;;;1.65;;
24521;SDS011;12680;57.804;12.190;2023-03-01T04:33:19;1.30;;;0.55;;
24521;SDS011;12680;57.804;12.190;2023-03-01T04:35:47;1.52;;;0.90;;
24521;SDS011;12680;57.804;12.190;2023-03-01T04:38:17;2.28;;;1.17;;
24521;SDS011;12680;57.804;12.190;2023-03-01T04:40:45;1.45;;;1.00;;
24521;SDS011;12680;57.804;12.190;2023-03-01T04:43:12;1.08;;;0.90;;
24521;SDS011;12680;57.804;12.190;2023-03-01T04:45:41;1.65;;;0.85;;
24521;SDS011;12680;57.804;12.190;2023-03-01T04:48:08;2.95;;;1.10;;
24521;SDS011;12680;57.804;12.190;2023-03-01T04:50:35;2.58;;;1.13;;
24521;SDS011;12680;57.804;12.190;2023-03-01T04:53:02;1.33;;;0.90;;
24521;SDS011;12680;57.804;12.190;2023-03-01T04:55:29;1.60;;;0.93;;
24521;SDS011;12680;57.804;12.190;2023-03-01T04:57:56;3.05;;;1.00;;
24521;SDS011;12680;57.804;12.190;2023-03-01T05:00:23;1.67;;;1.08;;
24521;SDS011;12680;57.804;12.190;2023-03-01T05:02:51;1.25;;;1.00;;
24521;SDS011;12680;57.804;12.190;2023-03-01T05:05:23;1.10;;;1.00;;
24521;SDS011;12680;57.804;12.190;2023-03-01T05:07:52;1.35;;;1.08;;
24521;SDS011;12680;57.804;12.190;2023-03-01T05:10:20;1.60;;;0.80;;
24521;SDS011;12680;57.804;12.190;2023-03-01T05:12:47;1.02;;;0.80;;
24521;SDS011;12680;57.804;12.190;2023-03-01T05:15:14;0.73;;;0.73;;
24521;SDS011;12680;57.804;12.190;2023-03-01T05:17:41;1.65;;;0.77;;
24521;SDS011;12680;57.804;12.190;2023-03-01T05:20:08;1.35;;;0.80;;
24521;SDS011;12680;57.804;12.190;2023-03-01T05:22:36;0.98;;;0.73;;
24521;SDS011;12680;57.804;12.190;2023-03-01T05:25:03;0.60;;;0.57;;
24521;SDS011;12680;57.804;12.190;2023-03-01T05:27:30;0.88;;;0.73;;
24521;SDS011;12680;57.804;12.190;2023-03-01T05:29:57;1.10;;;1.00;;
24521;SDS011;12680;57.804;12.190;2023-03-01T05:32:24;1.85;;;0.82;;
24521;SDS011;12680;57.804;12.190;2023-03-01T05:34:51;0.77;;;0.70;;
24521;SDS011;12680;57.804;12.190;2023-03-01T05:37:18;1.27;;;1.00;;
24521;SDS011;12680;57.804;12.190;2023-03-01T05:39:45;1.30;;;0.88;;
24521;SDS011;12680;57.804;12.190;2023-03-01T05:42:15;2.05;;;0.82;;
24521;SDS011;12680;57.804;12.190;2023-03-01T05:44:43;2.42;;;0.93;;
24521;SDS011;12680;57.804;12.190;2023-03-01T05:47:10;1.02;;;0.73;;
24521;SDS011;12680;57.804;12.190;2023-03-01T05:49:37;0.90;;;0.73;;
24521;SDS011;12680;57.804;12.190;2023-03-01T05:52:05;0.90;;;0.73;;
24521;SDS011;12680;57.804;12.190;2023-03-01T05:54:31;1.05;;;0.82;;
24521;SDS011;12680;57.804;12.190;2023-03-01T05:56:59;1.70;;;1.00;;
24521;SDS011;12680;57.804;12.190;2023-03-01T05:59:26;1.70;;;0.93;;
24521;SDS011;12680;57.804;12.190;2023-03-01T06:01:52;1.20;;;0.70;;
24521;SDS011;12680;57.804;12.190;2023-03-01T06:04:19;0.85;;;0.80;;
24521;SDS011;12680;57.804;12.190;2023-03-01T06:06:47;1.13;;;0.90;;
24521;SDS011;12680;57.804;12.190;2023-03-01T06:09:14;0.70;;;0.70;;
24521;SDS011;12680;57.804;12.190;2023-03-01T06:11:40;1.38;;;0.90;;
24521;SDS011;12680;57.804;12.190;2023-03-01T06:14:07;2.00;;;0.85;;
24521;SDS011;12680;57.804;12.190;2023-03-01T06:16:34;1.00;;;0.80;;
24521;SDS011;12680;57.804;12.190;2023-03-01T06:19:01;1.02;;;0.73;;
24521;SDS011;12680;57.804;12.190;2023-03-01T06:21:28;1.80;;;0.98;;
24521;SDS011;12680;57.804;12.190;2023-03-01T06:23:54;0.90;;;0.80;;
24521;SDS011;12680;57.804;12.190;2023-03-01T06:26:21;0.80;;;0.80;;
24521;SDS011;12680;57.804;12.190;2023-03-01T06:28:48;1.20;;;0.88;;
24521;SDS011;12680;57.804;12.190;2023-03-01T06:31:14;2.10;;;0.80;;
24521;SDS011;12680;57.804;12.190;2023-03-01T06:33:41;1.33;;;0.98;;
24521;SDS011;12680;57.804;12.190;2023-03-01T06:36:10;1.73;;;1.40;;
24521;SDS011;12680;57.804;12.190;2023-03-01T06:38:37;1.85;;;1.27;;
24521;SDS011;12680;57.804;12.190;2023-03-01T06:41:04;2.35;;;1.20;;
24521;SDS011;12680;57.804;12.190;2023-03-01T06:43:31;1.30;;;0.85;;
24521;SDS011;12680;57.804;12.190;2023-03-01T06:45:58;0.80;;;0.80;;
24521;SDS011;12680;57.804;12.190;2023-03-01T06:48:24;2.95;;;1.40;;
24521;SDS011;12680;57.804;12.190;2023-03-01T06:50:51;1.42;;;0.98;;
24521;SDS011;12680;57.804;12.190;2023-03-01T06:53:18;2.85;;;0.90;;
24521;SDS011;12680;57.804;12.190;2023-03-01T06:55:45;1.63;;;1.10;;
24521;SDS011;12680;57.804;12.190;2023-03-01T06:58:12;1.33;;;0.90;;
24521;SDS011;12680;57.804;12.190;2023-03-01T07:00:38;1.05;;;0.88;;
24521;SDS011;12680;57.804;12.190;2023-03-01T07:03:07;1.25;;;1.05;;
24521;SDS011;12680;57.804;12.190;2023-03-01T07:05:34;1.88;;;1.20;;
24521;SDS011;12680;57.804;12.190;2023-03-01T07:08:01;2.58;;;0.95;;
24521;SDS011;12680;57.804;12.190;2023-03-01T07:10:28;2.10;;;0.98;;
24521;SDS011;12680;57.804;12.190;2023-03-01T07:12:58;2.97;;;1.20;;
24521;SDS011;12680;57.804;12.190;2023-03-01T07:15:25;1.92;;;1.20;;
24521;SDS011;12680;57.804;12.190;2023-03-01T07:17:53;2.58;;;1.42;;
24521;SDS011;12680;57.804;12.190;2023-03-01T07:20:20;1.73;;;1.15;;
24521;SDS011;12680;57.804;12.190;2023-03-01T07:25:18;4.25;;;0.80;;
24521;SDS011;12680;57.804;12.190;2023-03-01T07:27:49;1.13;;;0.93;;
24521;SDS011;12680;57.804;12.190;2023-03-01T07:30:19;1.52;;;0.70;;
24521;SDS011;12680;57.804;12.190;2023-03-01T07:32:47;1.42;;;0.90;;
24521;SDS011;12680;57.804;12.190;2023-03-01T07:35:14;1.05;;;0.85;;
24521;SDS011;12680;57.804;12.190;2023-03-01T07:37:41;1.85;;;1.02;;
24521;SDS011;12680;57.804;12.190;2023-03-01T07:40:08;2.05;;;0.82;;
24521;SDS011;12680;57.804;12.190;2023-03-01T07:42:35;0.73;;;0.73;;
24521;SDS011;12680;57.804;12.190;2023-03-01T07:45:03;1.08;;;0.80;;
24521;SDS011;12680;57.804;12.190;2023-03-01T07:47:31;0.77;;;0.60;;
24521;SDS011;12680;57.804;12.190;2023-03-01T07:49:58;1.23;;;0.73;;
24521;SDS011;12680;57.804;12.190;2023-03-01T07:52:25;2.17;;;1.15;;
24521;SDS011;12680;57.804;12.190;2023-03-01T07:54:52;0.98;;;0.80;;
24521;SDS011;12680;57.804;12.190;2023-03-01T07:57:19;0.75;;;0.75;;
24521;SDS011;12680;57.804;12.190;2023-03-01T07:59:46;2.30;;;1.02;;
24521;SDS011;12680;57.804;12.190;2023-03-01T08:02:13;1.77;;;1.10;;
24521;SDS011;12680;57.804;12.190;2023-03-01T08:04:41;1.35;;;0.70;;
24521;SDS011;12680;57.804;12.190;2023-03-01T08:07:08;1.23;;;0.73;;
24521;SDS011;12680;57.804;12.190;2023-03-01T08:09:35;1.75;;;0.98;;
24521;SDS011;12680;57.804;12.190;2023-03-01T08:12:05;2.97;;;0.90;;
24521;SDS011;12680;57.804;12.190;2023-03-01T08:14:32;1.73;;;1.00;;
24521;SDS011;12680;57.804;12.190;2023-03-01T08:16:59;1.20;;;0.85;;
24521;SDS011;12680;57.804;12.190;2023-03-01T08:19:26;1.55;;;1.02;;
24521;SDS011;12680;57.804;12.190;2023-03-01T08:21:54;1.15;;;0.65;;
24521;SDS011;12680;57.804;12.190;2023-03-01T08:24:24;2.72;;;0.77;;
24521;SDS011;12680;57.804;12.190;2023-03-01T08:26:51;1.05;;;0.85;;
24521;SDS011;12680;57.804;12.190;2023-03-01T08:29:18;1.50;;;0.63;;
24521;SDS011;12680;57.804;12.190;2023-03-01T08:31:44;1.50;;;0.80;;
24521;SDS011;12680;57.804;12.190;2023-03-01T08:34:12;1.65;;;1.00;;
24521;SDS011;12680;57.804;12.190;2023-03-01T08:36:41;0.82;;;0.75;;
24521;SDS011;12680;57.804;12.190;2023-03-01T08:39:10;2.15;;;1.20;;
24521;SDS011;12680;57.804;12.190;2023-03-01T08:41:42;2.20;;;1.08;;
24521;SDS011;12680;57.804;12.190;2023-03-01T08:44:12;2.00;;;0.90;;
24521;SDS011;12680;57.804;12.190;2023-03-01T08:46:40;2.10;;;1.35;;
24521;SDS011;12680;57.804;12.190;2023-03-01T08:49:12;1.65;;;0.98;;
24521;SDS011;12680;57.804;12.190;2023-03-01T08:51:40;1.45;;;1.15;;
24521;SDS011;12680;57.804;12.190;2023-03-01T08:54:10;1.75;;;0.80;;
24521;SDS011;12680;57.804;12.190;2023-03-01T08:56:55;2.00;;;0.95;;
24521;SDS011;12680;57.804;12.190;2023-03-01T08:59:25;1.00;;;0.90;;
24521;SDS011;12680;57.804;12.190;2023-03-01T09:01:52;1.30;;;1.08;;
24521;SDS011;12680;57.804;12.190;2023-03-01T09:04:19;1.35;;;1.08;;
24521;SDS011;12680;57.804;12.190;2023-03-01T09:06:46;1.90;;;1.13;;
24521;SDS011;12680;57.804;12.190;2023-03-01T09:09:13;1.83;;;0.82;;
24521;SDS011;12680;57.804;12.190;2023-03-01T09:11:44;2.50;;;0.95;;
24521;SDS011;12680;57.804;12.190;2023-03-01T09:14:13;1.00;;;0.80;;
24521;SDS011;12680;57.804;12.190;2023-03-01T09:16:40;0.98;;;0.75;;
24521;SDS011;12680;57.804;12.190;2023-03-01T09:19:07;3.20;;;0.73;;
24521;SDS011;12680;57.804;12.190;2023-03-01T09:21:34;0.68;;;0.57;;
24521;SDS011;12680;57.804;12.190;2023-03-01T09:26:38;0.57;;;0.50;;
24521;SDS011;12680;57.804;12.190;2023-03-01T09:29:04;1.08;;;0.85;;
24521;SDS011;12680;57.804;12.190;2023-03-01T09:31:31;2.13;;;0.88;;
24521;SDS011;12680;57.804;12.190;2023-03-01T09:33:58;0.77;;;0.75;;
24521;SDS011;12680;57.804;12.190;2023-03-01T09:36:25;1.05;;;0.65;;
24521;SDS011;12680;57.804;12.190;2023-03-01T09:38:51;3.85;;;0.80;;
24521;SDS011;12680;57.804;12.190;2023-03-01T09:41:26;2.95;;;1.42;;
24521;SDS011;12680;57.804;12.190;2023-03-01T09:44:03;1.23;;;0.70;;
24521;SDS011;12680;57.804;12.190;2023-03-01T09:46:48;1.15;;;0.75;;
24521;SDS011;12680;57.804;12.190;2023-03-01T09:49:17;3.60;;;1.30;;
24521;SDS011;12680;57.804;12.190;2023-03-01T09:54:49;2.40;;;1.35;;
24521;SDS011;12680;57.804;12.190;2023-03-01T09:57:26;1.05;;;0.60;;
24521;SDS011;12680;57.804;12.190;2023-03-01T10:02:47;2.30;;;1.00;;
24521;SDS011;12680;57.804;12.190;2023-03-01T10:10:36;2.55;;;1.10;;
24521;SDS011;12680;57.804;12.190;2023-03-01T10:13:16;1.33;;;0.43;;
24521;SDS011;12680;57.804;12.190;2023-03-01T10:15:49;6.13;;;1.55;;
24521;SDS011;12680;57.804;12.190;2023-03-01T10:18:22;0.95;;;0.60;;
24521;SDS011;12680;57.804;12.190;2023-03-01T10:20:55;1.52;;;0.80;;
24521;SDS011;12680;57.804;12.190;2023-03-01T10:23:30;4.07;;;2.35;;
24521;SDS011;12680;57.804;12.190;2023-03-01T10:28:47;2.45;;;0.50;;
24521;SDS011;12680;57.804;12.190;2023-03-01T10:31:23;1.05;;;0.95;;
24521;SDS011;12680;57.804;12.190;2023-03-01T10:33:55;0.55;;;0.55;;
24521;SDS011;12680;57.804;12.190;2023-03-01T10:36:23;1.90;;;0.45;;
24521;SDS011;12680;57.804;12.190;2023-03-01T10:38:52;1.38;;;0.47;;
24521;SDS011;12680;57.804;12.190;2023-03-01T10:41:21;1.25;;;0.52;;
24521;SDS011;12680;57.804;12.190;2023-03-01T10:43:50;0.80;;;0.43;;
24521;SDS011;12680;57.804;12.190;2023-03-01T10:46:22;0.50;;;0.30;;
24521;SDS011;12680;57.804;12.190;2023-03-01T10:49:10;0.77;;;0.50;;
24521;SDS011;12680;57.804;12.190;2023-03-01T10:51:41;0.28;;;0.28;;
24521;SDS011;12680;57.804;12.190;2023-03-01T10:54:27;1.60;;;0.60;;
24521;SDS011;12680;57.804;12.190;2023-03-01T10:56:56;0.90;;;0.90;;
24521;SDS011;12680;57.804;12.190;2023-03-01T10:59:35;1.25;;;0.40;;
24521;SDS011;12680;57.804;12.190;2023-03-01T11:04:56;1.95;;;0.50;;
24521;SDS011;12680;57.804;12.190;2023-03-01T11:07:23;1.13;;;0.55;;
24521;SDS011;12680;57.804;12.190;2023-03-01T11:09:50;0.80;;;0.35;;
24521;SDS011;12680;57.804;12.190;2023-03-01T11:12:16;1.25;;;0.70;;
24521;SDS011;12680;57.804;12.190;2023-03-01T11:14:47;1.67;;;0.77;;
24521;SDS011;12680;57.804;12.190;2023-03-01T11:22:43;0.82;;;0.65;;
24521;SDS011;12680;57.804;12.190;2023-03-01T11:25:26;1.10;;;0.50;;
24521;SDS011;12680;57.804;12.190;2023-03-01T11:27:59;3.55;;;0.50;;
24521;SDS011;12680;57.804;12.190;2023-03-01T11:30:31;1.13;;;0.40;;
24521;SDS011;12680;57.804;12.190;2023-03-01T11:35:47;1.80;;;0.60;;
24521;SDS011;12680;57.804;12.190;2023-03-01T11:38:36;1.98;;;1.40;;
24521;SDS011;12680;57.804;12.190;2023-03-01T11:41:17;1.77;;;0.75;;
24521;SDS011;12680;57.804;12.190;2023-03-01T11:43:52;0.88;;;0.40;;
24521;SDS011;12680;57.804;12.190;2023-03-01T11:49:35;0.55;;;0.43;;
24521;SDS011;12680;57.804;12.190;2023-03-01T11:52:35;0.90;;;0.60;;
24521;SDS011;12680;57.804;12.190;2023-03-01T11:58:03;0.70;;;0.55;;
24521;SDS011;12680;57.804;12.190;2023-03-01T12:00:55;1.33;;;0.50;;
24521;SDS011;12680;57.804;12.190;2023-03-01T12:05:59;0.90;;;0.50;;
24521;SDS011;12680;57.804;12.190;2023-03-01T12:09:06;0.60;;;0.60;;
24521;SDS011;12680;57.804;12.190;2023-03-01T12:23:14;1.00;;;0.30;;
24521;SDS011;12680;57.804;12.190;2023-03-01T12:31:35;0.63;;;0.40;;
24521;SDS011;12680;57.804;12.190;2023-03-01T12:34:11;3.20;;;0.40;;
24521;SDS011;12680;57.804;12.190;2023-03-01T12:39:44;1.83;;;0.50;;
24521;SDS011;12680;57.804;12.190;2023-03-01T12:48:40;0.77;;;0.60;;
24521;SDS011;12680;57.804;12.190;2023-03-01T12:51:28;0.38;;;0.38;;
24521;SDS011;12680;57.804;12.190;2023-03-01T12:53:59;0.73;;;0.50;;
24521;SDS011;12680;57.804;12.190;2023-03-01T12:56:31;1.00;;;0.50;;
24521;SDS011;12680;57.804;12.190;2023-03-01T13:07:54;0.95;;;0.50;;
24521;SDS011;12680;57.804;12.190;2023-03-01T13:10:18;1.63;;;0.57;;
24521;SDS011;12680;57.804;12.190;2023-03-01T13:20:20;2.63;;;1.38;;
24521;SDS011;12680;57.804;12.190;2023-03-01T13:22:49;1.00;;;0.40;;
24521;SDS011;12680;57.804;12.190;2023-03-01T13:25:35;0.68;;;0.50;;
24521;SDS011;12680;57.804;12.190;2023-03-01T13:31:01;1.00;;;0.55;;
24521;SDS011;12680;57.804;12.190;2023-03-01T13:36:00;1.73;;;0.73;;
24521;SDS011;12680;57.804;12.190;2023-03-01T13:41:15;1.95;;;0.88;;
24521;SDS011;12680;57.804;12.190;2023-03-01T13:44:11;3.15;;;0.80;;
24521;SDS011;12680;57.804;12.190;2023-03-01T13:46:44;1.55;;;0.65;;
24521;SDS011;12680;57.804;12.190;2023-03-01T13:49:13;0.73;;;0.47;;
24521;SDS011;12680;57.804;12.190;2023-03-01T13:51:48;0.77;;;0.47;;
24521;SDS011;12680;57.804;12.190;2023-03-01T13:54:18;0.52;;;0.32;;
24521;SDS011;12680;57.804;12.190;2023-03-01T13:56:58;0.38;;;0.30;;
24521;SDS011;12680;57.804;12.190;2023-03-01T13:59:27;0.57;;;0.40;;
24521;SDS011;12680;57.804;12.190;2023-03-01T14:01:56;0.45;;;0.30;;
24521;SDS011;12680;57.804;12.190;2023-03-01T14:04:29;0.35;;;0.30;;
24521;SDS011;12680;57.804;12.190;2023-03-01T14:07:11;0.50;;;0.40;;
24521;SDS011;12680;57.804;12.190;2023-03-01T14:09:54;0.43;;;0.40;;
24521;SDS011;12680;57.804;12.190;2023-03-01T14:15:31;2.13;;;0.93;;
24521;SDS011;12680;57.804;12.190;2023-03-01T14:18:27;0.75;;;0.30;;
24521;SDS011;12680;57.804;12.190;2023-03-01T14:21:06;0.20;;;0.20;;
24521;SDS011;12680;57.804;12.190;2023-03-01T14:23:34;2.30;;;0.30;;
24521;SDS011;12680;57.804;12.190;2023-03-01T14:26:04;0.30;;;0.28;;
24521;SDS011;12680;57.804;12.190;2023-03-01T14:28:31;0.85;;;0.22;;
24521;SDS011;12680;57.804;12.190;2023-03-01T14:31:03;10.40;;;3.05;;
24521;SDS011;12680;57.804;12.190;2023-03-01T14:33:55;1.70;;;0.77;;
24521;SDS011;12680;57.804;12.190;2023-03-01T14:36:32;0.45;;;0.28;;
24521;SDS011;12680;57.804;12.190;2023-03-01T14:39:00;0.57;;;0.35;;
24521;SDS011;12680;57.804;12.190;2023-03-01T14:41:34;1.33;;;0.60;;
24521;SDS011;12680;57.804;12.190;2023-03-01T14:46:41;0.43;;;0.20;;
24521;SDS011;12680;57.804;12.190;2023-03-01T14:49:17;1.30;;;0.60;;
24521;SDS011;12680;57.804;12.190;2023-03-01T14:51:54;0.68;;;0.40;;
24521;SDS011;12680;57.804;12.190;2023-03-01T14:54:28;1.48;;;0.30;;
24521;SDS011;12680;57.804;12.190;2023-03-01T14:57:14;1.27;;;0.40;;
24521;SDS011;12680;57.804;12.190;2023-03-01T14:59:42;0.63;;;0.30;;
24521;SDS011;12680;57.804;12.190;2023-03-01T15:02:17;3.97;;;0.38;;
24521;SDS011;12680;57.804;12.190;2023-03-01T15:04:46;0.95;;;0.47;;
24521;SDS011;12680;57.804;12.190;2023-03-01T15:07:16;1.20;;;0.70;;
24521;SDS011;12680;57.804;12.190;2023-03-01T15:09:43;0.45;;;0.45;;
24521;SDS011;12680;57.804;12.190;2023-03-01T15:14:54;1.25;;;0.95;;
24521;SDS011;12680;57.804;12.190;2023-03-01T15:17:33;3.30;;;2.10;;
24521;SDS011;12680;57.804;12.190;2023-03-01T15:20:03;1.48;;;1.25;;
24521;SDS011;12680;57.804;12.190;2023-03-01T15:22:33;0.65;;;0.40;;
24521;SDS011;12680;57.804;12.190;2023-03-01T15:25:01;0.30;;;0.30;;
24521;SDS011;12680;57.804;12.190;2023-03-01T15:27:27;0.85;;;0.50;;
24521;SDS011;12680;57.804;12.190;2023-03-01T15:29:55;0.40;;;0.40;;
24521;SDS011;12680;57.804;12.190;2023-03-01T15:32:28;0.20;;;0.20;;
24521;SDS011;12680;57.804;12.190;2023-03-01T15:35:00;0.28;;;0.28;;
24521;SDS011;12680;57.804;12.190;2023-03-01T15:37:48;1.10;;;0.50;;
24521;SDS011;12680;57.804;12.190;2023-03-01T15:40:28;0.80;;;0.50;;
24521;SDS011;12680;57.804;12.190;2023-03-01T15:42:59;10.07;;;1.65;;
24521;SDS011;12680;57.804;12.190;2023-03-01T15:45:29;1.10;;;0.60;;
24521;SDS011;12680;57.804;12.190;2023-03-01T15:48:04;1.10;;;0.93;;
24521;SDS011;12680;57.804;12.190;2023-03-01T15:50:40;1.92;;;1.50;;
24521;SDS011;12680;57.804;12.190;2023-03-01T15:53:13;9.60;;;5.45;;
24521;SDS011;12680;57.804;12.190;2023-03-01T15:58:15;8.93;;;3.78;;
24521;SDS011;12680;57.804;12.190;2023-03-01T16:00:45;13.63;;;8.93;;
24521;SDS011;12680;57.804;12.190;2023-03-01T16:03:26;30.20;;;15.27;;
24521;SDS011;12680;57.804;12.190;2023-03-01T16:05:53;21.75;;;9.82;;
24521;SDS011;12680;57.804;12.190;2023-03-01T16:08:20;16.85;;;10.50;;
24521;SDS011;12680;57.804;12.190;2023-03-01T16:10:46;32.03;;;18.38;;
24521;SDS011;12680;57.804;12.190;2023-03-01T16:13:16;28.48;;;13.82;;
24521;SDS011;12680;57.804;12.190;2023-03-01T16:15:43;6.57;;;4.32;;
24521;SDS011;12680;57.804;12.190;2023-03-01T16:18:11;4.72;;;2.60;;
24521;SDS011;12680;57.804;12.190;2023-03-01T16:20:38;6.10;;;3.10;;
24521;SDS011;12680;57.804;12.190;2023-03-01T16:23:07;5.20;;;3.22;;
24521;SDS011;12680;57.804;12.190;2023-03-01T16:25:35;6.35;;;4.05;;
24521;SDS011;12680;57.804;12.190;2023-03-01T16:28:02;5.75;;;2.90;;
24521;SDS011;12680;57.804;12.190;2023-03-01T16:30:36;4.18;;;2.33;;
24521;SDS011;12680;57.804;12.190;2023-03-01T16:33:04;2.83;;;1.40;;
24521;SDS011;12680;57.804;12.190;2023-03-01T16:35:53;4.68;;;1.35;;
24521;SDS011;12680;57.804;12.190;2023-03-01T16:38:20;6.78;;;3.17;;
24521;SDS011;12680;57.804;12.190;2023-03-01T16:40:48;1194.05;;;380.35;;
24521;SDS011;12680;57.804;12.190;2023-03-01T16:43:16;1380.55;;;498.65;;